Time;durP1;ratioP1;P1;durP2;ratioP2;P2;SDS_P1;SDS_P2;PMS_P1;PMS_P2;Temp;Humidity;BMP_temperature;BMP_pressure;BME280_temperature;BME280_humidity;BME280_pressure;Samples;Min_cycle;Max_cycle;Signal;HPM_P1;HPM_P2
2022/03/28 00:00:38;;;;;;;21.23;9.88;;;7.90;63.80;;;;;;5009946;28;20022;-67
2022/03/28 00:03:05;;;;;;;18.02;9.20;;;7.90;64.10;;;;;;5005958;28;20498;-67
2022/03/28 00:05:31;;;;;;;17.73;8.50;;;7.90;64.50;;;;;;5011247;28;20483;-67
2022/03/28 00:07:57;;;;;;;22.88;9.40;;;7.80;64.50;;;;;;5012334;28;20057;-67
2022/03/28 00:10:23;;;;;;;19.27;9.15;;;7.80;64.20;;;;;;5013359;28;20033;-67
2022/03/28 00:12:49;;;;;;;22.25;9.07;;;7.80;64.20;;;;;;5011004;28;20077;-67
2022/03/28 00:15:14;;;;;;;20.75;9.25;;;7.80;64.40;;;;;;5013232;28;20026;-67
2022/03/28 00:17:40;;;;;;;21.27;9.23;;;7.80;64.60;;;;;;5008431;28;20040;-67
2022/03/28 00:20:11;;;;;;;25.67;10.35;;;7.80;64.50;;;;;;5013062;28;20037;-67
2022/03/28 00:22:38;;;;;;;19.65;9.98;;;7.80;64.80;;;;;;5015184;28;20078;-67
2022/03/28 00:25:05;;;;;;;19.33;9.35;;;7.70;64.90;;;;;;5026217;28;20378;-67
2022/03/28 00:27:31;;;;;;;17.15;8.43;;;7.70;65.20;;;;;;5014270;28;20037;-67
2022/03/28 00:29:56;;;;;;;22.58;9.38;;;7.70;65.40;;;;;;5012266;28;20021;-67
2022/03/28 00:32:22;;;;;;;24.83;9.48;;;7.60;65.70;;;;;;5009703;28;20037;-67
2022/03/28 00:34:48;;;;;;;20.83;9.25;;;7.60;66.00;;;;;;5008001;28;20033;-67
2022/03/28 00:37:13;;;;;;;22.98;9.48;;;7.60;66.10;;;;;;5013316;28;20410;-68
2022/03/28 00:39:39;;;;;;;18.60;8.27;;;7.60;66.10;;;;;;5009808;28;20030;-67
2022/03/28 00:42:05;;;;;;;25.10;9.60;;;7.50;66.50;;;;;;5009544;28;20054;-68
2022/03/28 00:44:32;;;;;;;22.60;9.77;;;7.50;66.90;;;;;;5010160;28;20056;-68
2022/03/28 00:46:58;;;;;;;21.83;8.88;;;7.40;66.80;;;;;;5010625;28;20018;-68
2022/03/28 00:49:24;;;;;;;19.52;8.98;;;7.40;67.20;;;;;;5014495;28;20040;-68
2022/03/28 00:51:50;;;;;;;19.33;8.65;;;7.40;67.30;;;;;;5009657;28;20025;-67
2022/03/28 00:54:16;;;;;;;20.83;9.18;;;7.40;67.70;;;;;;5005388;28;20018;-68
2022/03/28 00:56:45;;;;;;;17.45;8.48;;;7.30;67.50;;;;;;5004630;28;20034;-68
2022/03/28 00:59:11;;;;;;;20.33;9.38;;;7.30;67.60;;;;;;5005560;28;20091;-68
2022/03/28 01:01:37;;;;;;;19.75;8.85;;;7.30;67.50;;;;;;5011325;28;20495;-68
2022/03/28 01:04:07;;;;;;;18.75;9.20;;;7.30;67.70;;;;;;5006713;28;20064;-67
2022/03/28 01:06:34;;;;;;;22.52;9.85;;;7.30;67.90;;;;;;5010805;28;20382;-67
2022/03/28 01:09:00;;;;;;;23.98;8.80;;;7.20;68.20;;;;;;5013578;28;20097;-67
2022/03/28 01:11:27;;;;;;;19.25;8.65;;;7.10;68.40;;;;;;5012987;28;20070;-67
2022/03/28 01:13:54;;;;;;;20.30;8.80;;;7.00;68.90;;;;;;5010925;28;20018;-67
2022/03/28 01:16:19;;;;;;;18.63;9.05;;;7.00;69.30;;;;;;5010810;28;20489;-67
2022/03/28 01:18:47;;;;;;;21.52;9.18;;;6.90;69.10;;;;;;5010061;28;20022;-67
2022/03/28 01:21:13;;;;;;;19.63;8.93;;;6.80;69.70;;;;;;5009821;28;20037;-67
2022/03/28 01:23:39;;;;;;;20.77;9.10;;;6.70;70.70;;;;;;5011244;28;20391;-67
2022/03/28 01:26:08;;;;;;;18.90;8.82;;;6.60;71.30;;;;;;5010713;28;20105;-67
2022/03/28 01:28:34;;;;;;;20.88;9.38;;;6.60;71.60;;;;;;5013347;28;20530;-67
2022/03/28 01:31:00;;;;;;;17.90;8.43;;;6.60;71.80;;;;;;5014738;28;20123;-67
2022/03/28 01:33:25;;;;;;;21.50;9.52;;;6.50;72.20;;;;;;5016846;28;20037;-67
2022/03/28 01:35:54;;;;;;;22.00;9.80;;;6.50;72.30;;;;;;5019120;28;20529;-67
2022/03/28 01:38:20;;;;;;;18.48;9.10;;;6.50;73.10;;;;;;4996194;28;20506;-67
2022/03/28 01:40:48;;;;;;;16.80;8.30;;;6.50;73.00;;;;;;5007941;28;20026;-67
2022/03/28 01:43:15;;;;;;;19.92;9.40;;;6.40;73.20;;;;;;5005116;28;20018;-67
2022/03/28 01:45:41;;;;;;;17.58;8.98;;;6.50;74.30;;;;;;5013570;28;20026;-67
2022/03/28 01:48:07;;;;;;;20.05;9.32;;;6.40;74.70;;;;;;5012282;28;20037;-67
2022/03/28 01:50:34;;;;;;;19.67;8.98;;;6.40;74.60;;;;;;5007296;28;20038;-67
2022/03/28 01:52:59;;;;;;;22.15;9.68;;;6.30;74.90;;;;;;5010553;28;20029;-67
2022/03/28 01:55:25;;;;;;;20.25;8.68;;;6.40;75.10;;;;;;5002173;28;20026;-67
2022/03/28 01:57:52;;;;;;;21.17;9.25;;;6.30;74.90;;;;;;5010095;28;20360;-67
2022/03/28 02:00:23;;;;;;;25.23;10.20;;;6.30;75.00;;;;;;5013057;28;20018;-67
2022/03/28 02:02:49;;;;;;;19.55;8.63;;;6.30;75.80;;;;;;5013642;28;20060;-67
2022/03/28 02:05:16;;;;;;;23.90;9.80;;;6.30;76.00;;;;;;5007055;28;20040;-68
2022/03/28 02:07:46;;;;;;;23.05;8.93;;;6.20;75.90;;;;;;4993947;28;20045;-67
2022/03/28 02:10:14;;;;;;;24.60;9.73;;;6.20;76.20;;;;;;4993118;28;20038;-67
2022/03/28 02:12:40;;;;;;;22.02;9.98;;;6.20;76.80;;;;;;4994077;28;20030;-67
2022/03/28 02:15:08;;;;;;;19.77;9.23;;;6.20;77.10;;;;;;5010985;28;20105;-67
2022/03/28 02:17:38;;;;;;;20.55;9.27;;;6.20;77.30;;;;;;5003934;28;20026;-67
2022/03/28 02:20:06;;;;;;;22.02;9.23;;;6.20;77.80;;;;;;5025746;23;20064;-67
2022/03/28 02:22:33;;;;;;;19.40;9.50;;;6.20;77.70;;;;;;5042844;28;20022;-67
2022/03/28 02:25:00;;;;;;;21.08;8.80;;;6.20;77.90;;;;;;5031750;28;20029;-67
2022/03/28 02:27:26;;;;;;;23.27;10.73;;;6.10;77.80;;;;;;5030127;28;20029;-67
2022/03/28 02:29:52;;;;;;;24.63;9.70;;;6.10;78.40;;;;;;5023715;28;20036;-66
2022/03/28 02:32:17;;;;;;;21.02;10.07;;;6.10;78.70;;;;;;5027048;28;20030;-66
2022/03/28 02:34:43;;;;;;;22.83;10.25;;;6.00;79.20;;;;;;5018754;28;20068;-66
2022/03/28 02:37:09;;;;;;;22.67;9.82;;;6.00;79.30;;;;;;5022086;28;20445;-66
2022/03/28 02:39:34;;;;;;;23.52;10.23;;;6.00;79.20;;;;;;5029915;28;20036;-66
2022/03/28 02:42:00;;;;;;;20.80;9.07;;;6.00;79.50;;;;;;5030027;28;20433;-66
2022/03/28 02:44:26;;;;;;;22.00;9.65;;;6.00;79.70;;;;;;5030102;28;20086;-66
2022/03/28 02:46:52;;;;;;;24.45;9.57;;;6.00;79.70;;;;;;5026861;28;20090;-66
2022/03/28 02:49:20;;;;;;;22.48;9.48;;;6.00;79.90;;;;;;5027912;28;20488;-66
2022/03/28 02:51:46;;;;;;;22.83;9.73;;;6.00;80.40;;;;;;5026676;28;20041;-66
2022/03/28 02:54:12;;;;;;;20.20;8.95;;;6.00;80.80;;;;;;5027671;28;20030;-66
2022/03/28 02:56:38;;;;;;;23.67;9.57;;;6.00;81.00;;;;;;5026597;28;20390;-66
2022/03/28 02:59:03;;;;;;;22.20;9.35;;;6.00;81.40;;;;;;5029392;28;20092;-67
2022/03/28 03:01:29;;;;;;;22.45;9.60;;;6.00;81.10;;;;;;5026086;28;20021;-67
2022/03/28 03:03:55;;;;;;;19.63;8.63;;;6.00;80.90;;;;;;5025959;28;20026;-65
2022/03/28 03:06:20;;;;;;;21.67;9.60;;;6.00;81.10;;;;;;5028154;28;20034;-66
2022/03/28 03:08:46;;;;;;;24.05;9.82;;;6.00;81.00;;;;;;5028802;28;20036;-66
2022/03/28 03:11:12;;;;;;;23.27;9.70;;;6.00;81.40;;;;;;5028967;28;20029;-65
2022/03/28 03:13:37;;;;;;;25.48;9.52;;;6.00;82.10;;;;;;5025901;28;20030;-66
2022/03/28 03:16:06;;;;;;;18.92;9.27;;;5.90;82.60;;;;;;5032176;28;20383;-65
2022/03/28 03:18:32;;;;;;;17.35;8.93;;;5.90;82.60;;;;;;5022013;28;20038;-66
2022/03/28 03:20:59;;;;;;;22.83;8.65;;;5.90;82.50;;;;;;5031632;28;20497;-66
2022/03/28 03:23:25;;;;;;;22.13;8.93;;;5.90;82.50;;;;;;5033627;28;20021;-67
2022/03/28 03:25:51;;;;;;;20.67;10.10;;;5.80;83.00;;;;;;5024636;28;20033;-66
2022/03/28 03:28:17;;;;;;;19.65;8.75;;;5.80;83.40;;;;;;5028622;28;20374;-66
2022/03/28 03:30:43;;;;;;;22.17;9.30;;;5.70;84.60;;;;;;5028879;28;20434;-66
2022/03/28 03:33:09;;;;;;;17.80;9.65;;;5.70;84.70;;;;;;5027886;28;20033;-66
2022/03/28 03:35:34;;;;;;;21.17;9.80;;;5.60;85.60;;;;;;5032209;28;20032;-66
2022/03/28 03:38:01;;;;;;;21.35;8.88;;;5.50;86.00;;;;;;5029078;28;20033;-66
2022/03/28 03:40:26;;;;;;;20.05;9.20;;;5.50;86.40;;;;;;5032716;28;20462;-66
2022/03/28 03:42:52;;;;;;;24.55;9.57;;;5.40;86.60;;;;;;5030612;28;20117;-67
2022/03/28 03:45:17;;;;;;;20.05;8.88;;;5.30;86.40;;;;;;5033387;28;20033;-66
2022/03/28 03:47:43;;;;;;;20.30;8.60;;;5.30;87.00;;;;;;5032321;28;20030;-66
2022/03/28 03:50:10;;;;;;;20.48;8.63;;;5.20;87.60;;;;;;5031620;28;20443;-66
2022/03/28 03:52:36;;;;;;;20.85;8.85;;;5.20;88.70;;;;;;5035018;28;20078;-66
2022/03/28 03:55:02;;;;;;;22.70;10.20;;;5.10;89.50;;;;;;5031430;28;20068;-67
2022/03/28 03:57:28;;;;;;;25.17;9.20;;;5.10;90.10;;;;;;5031821;28;20030;-67
2022/03/28 03:59:54;;;;;;;21.77;9.88;;;5.10;90.60;;;;;;5032112;28;20483;-66
2022/03/28 04:02:20;;;;;;;21.20;9.10;;;5.10;90.70;;;;;;5033312;28;20032;-66
2022/03/28 04:04:45;;;;;;;20.60;10.00;;;5.10;90.60;;;;;;5029205;28;20037;-67
2022/03/28 04:07:11;;;;;;;21.13;9.25;;;5.00;90.70;;;;;;5029064;28;20030;-66
2022/03/28 04:09:37;;;;;;;23.20;9.75;;;5.00;91.10;;;;;;5029970;28;20025;-67
2022/03/28 04:12:03;;;;;;;26.50;9.57;;;5.00;91.30;;;;;;5028522;28;20089;-66
2022/03/28 04:14:29;;;;;;;30.77;9.43;;;4.90;91.30;;;;;;5028977;28;20061;-67
2022/03/28 04:17:00;;;;;;;24.33;9.45;;;4.90;91.70;;;;;;5028629;28;20025;-67
2022/03/28 04:19:26;;;;;;;22.27;9.68;;;4.80;92.40;;;;;;5030567;28;20528;-67
2022/03/28 04:21:52;;;;;;;27.98;10.00;;;4.80;93.10;;;;;;5027499;28;20029;-67
2022/03/28 04:24:18;;;;;;;23.05;9.90;;;4.70;93.60;;;;;;5028993;28;20377;-67
2022/03/28 04:26:43;;;;;;;21.42;10.05;;;4.70;93.80;;;;;;5026574;28;20486;-67
2022/03/28 04:29:09;;;;;;;29.50;9.68;;;4.70;93.90;;;;;;5025647;28;20033;-67
2022/03/28 04:31:39;;;;;;;23.77;9.80;;;4.70;94.10;;;;;;5026809;28;20037;-67
2022/03/28 04:34:09;;;;;;;22.20;9.15;;;4.70;94.40;;;;;;5029505;28;20029;-67
2022/03/28 04:36:37;;;;;;;25.92;10.32;;;4.70;94.40;;;;;;5029453;28;20018;-66
2022/03/28 04:39:03;;;;;;;23.23;9.88;;;4.70;95.20;;;;;;5047208;28;20108;-67
2022/03/28 04:41:29;;;;;;;21.48;9.68;;;4.80;95.90;;;;;;5026386;28;20064;-67
2022/03/28 04:43:55;;;;;;;23.70;10.30;;;4.90;95.30;;;;;;5030491;28;20053;-66
2022/03/28 04:46:20;;;;;;;28.83;9.73;;;4.90;94.80;;;;;;5025684;28;20037;-66
2022/03/28 04:48:47;;;;;;;22.15;9.65;;;4.90;94.30;;;;;;5032017;28;20528;-67
2022/03/28 04:51:13;;;;;;;21.95;9.45;;;4.90;94.20;;;;;;5032113;28;20212;-66
2022/03/28 04:53:38;;;;;;;22.95;10.27;;;4.90;94.00;;;;;;5025322;28;20079;-67
2022/03/28 04:56:04;;;;;;;21.02;9.07;;;4.90;93.60;;;;;;5029055;28;20478;-67
2022/03/28 04:58:30;;;;;;;26.55;12.50;;;4.90;93.50;;;;;;5031570;28;20048;-67
2022/03/28 05:00:56;;;;;;;22.17;10.13;;;4.80;93.40;;;;;;5021350;28;20022;-67
2022/03/28 05:03:21;;;;;;;28.92;10.35;;;4.80;93.80;;;;;;5028498;28;20030;-66
2022/03/28 05:05:47;;;;;;;22.42;9.35;;;4.70;94.10;;;;;;5029426;28;20033;-67
2022/03/28 05:08:13;;;;;;;23.15;8.85;;;4.70;94.10;;;;;;5031046;28;20025;-67
2022/03/28 05:10:40;;;;;;;20.77;9.40;;;4.70;94.20;;;;;;5028685;28;20378;-66
2022/03/28 05:13:06;;;;;;;20.08;9.05;;;4.70;94.10;;;;;;5027039;28;20036;-67
2022/03/28 05:15:32;;;;;;;24.52;10.85;;;4.70;94.00;;;;;;5029106;28;20033;-67
2022/03/28 05:17:58;;;;;;;21.05;9.77;;;4.60;94.40;;;;;;5024237;28;20030;-67
2022/03/28 05:20:23;;;;;;;25.98;10.05;;;4.50;94.90;;;;;;5023420;28;20086;-66
2022/03/28 05:22:49;;;;;;;23.55;10.00;;;4.40;95.30;;;;;;5024251;28;20029;-66
2022/03/28 05:25:15;;;;;;;26.73;10.07;;;4.40;95.50;;;;;;5024991;28;20041;-66
2022/03/28 05:27:42;;;;;;;22.23;9.80;;;4.40;95.50;;;;;;5020107;28;20029;-66
2022/03/28 05:30:09;;;;;;;21.90;9.93;;;4.30;95.80;;;;;;5023230;28;20159;-65
2022/03/28 05:32:34;;;;;;;26.92;10.07;;;4.40;97.20;;;;;;5021647;28;20124;-65
2022/03/28 05:35:00;;;;;;;24.13;10.07;;;4.50;96.40;;;;;;5019423;28;20121;-67
2022/03/28 05:37:26;;;;;;;22.95;9.90;;;4.50;96.20;;;;;;5022662;28;20120;-66
2022/03/28 05:39:51;;;;;;;24.10;10.40;;;4.60;96.20;;;;;;5019733;28;20425;-66
2022/03/28 05:42:17;;;;;;;24.55;10.27;;;4.70;96.10;;;;;;5022570;28;20608;-66
2022/03/28 05:44:43;;;;;;;25.25;10.50;;;4.60;95.90;;;;;;5023027;28;20055;-66
2022/03/28 05:47:09;;;;;;;26.50;10.77;;;4.70;96.10;;;;;;5023869;28;20787;-66
2022/03/28 05:49:35;;;;;;;22.70;9.40;;;4.70;96.40;;;;;;5024283;28;20021;-66
2022/03/28 05:52:01;;;;;;;22.70;10.05;;;4.70;96.00;;;;;;5025094;28;20029;-66
2022/03/28 05:54:26;;;;;;;26.83;11.38;;;4.80;96.10;;;;;;5023488;28;20037;-66
2022/03/28 05:56:52;;;;;;;33.05;11.32;;;4.90;96.80;;;;;;5026693;28;20033;-66
2022/03/28 05:59:18;;;;;;;34.20;11.30;;;5.00;95.90;;;;;;5025092;28;20037;-66
2022/03/28 06:01:44;;;;;;;28.92;10.38;;;5.00;95.80;;;;;;5025819;28;20465;-67
2022/03/28 06:04:09;;;;;;;23.02;9.98;;;5.10;95.50;;;;;;5023017;28;20076;-66
2022/03/28 06:06:35;;;;;;;24.38;10.40;;;5.10;95.20;;;;;;5023722;28;20361;-67
2022/03/28 06:09:02;;;;;;;29.48;10.90;;;5.20;95.00;;;;;;5025613;28;20052;-67
2022/03/28 06:11:28;;;;;;;24.02;10.85;;;5.30;94.70;;;;;;5026357;28;20040;-67
2022/03/28 06:13:57;;;;;;;25.45;10.90;;;5.30;94.70;;;;;;5023980;28;20500;-67
2022/03/28 06:16:23;;;;;;;24.08;10.63;;;5.40;94.70;;;;;;5028171;28;20397;-66
2022/03/28 06:18:49;;;;;;;29.60;11.43;;;5.50;94.70;;;;;;5029600;28;20077;-66
2022/03/28 06:21:15;;;;;;;23.88;11.30;;;5.60;94.50;;;;;;5030674;28;20494;-67
2022/03/28 06:23:40;;;;;;;26.00;10.77;;;5.70;94.40;;;;;;5031306;28;20037;-68
2022/03/28 06:26:06;;;;;;;25.15;10.90;;;5.80;94.20;;;;;;5027486;28;20104;-67
2022/03/28 06:28:33;;;;;;;26.65;11.40;;;5.90;93.60;;;;;;5030304;28;20037;-66
2022/03/28 06:30:58;;;;;;;28.77;10.85;;;5.90;93.10;;;;;;5021470;28;20022;-65
2022/03/28 06:33:24;;;;;;;26.50;11.23;;;6.00;92.80;;;;;;5029688;28;20075;-67
2022/03/28 06:35:52;;;;;;;25.45;10.93;;;6.10;92.80;;;;;;5028002;28;20203;-65
2022/03/28 06:38:21;;;;;;;27.80;11.82;;;6.20;93.10;;;;;;5024313;28;20041;-67
2022/03/28 06:40:47;;;;;;;28.88;11.23;;;6.20;92.50;;;;;;5026474;28;20026;-67
2022/03/28 06:43:12;;;;;;;28.10;12.40;;;6.30;92.50;;;;;;5026899;28;20032;-67
2022/03/28 06:45:38;;;;;;;29.98;11.40;;;6.40;92.00;;;;;;5030472;28;20505;-67
2022/03/28 06:48:05;;;;;;;24.67;11.50;;;6.50;91.50;;;;;;5029865;28;20025;-66
2022/03/28 06:50:31;;;;;;;28.65;11.52;;;6.60;91.30;;;;;;5030318;28;20025;-67
2022/03/28 06:52:56;;;;;;;24.27;11.57;;;6.60;91.40;;;;;;5031612;28;20022;-67
2022/03/28 06:55:23;;;;;;;26.30;12.20;;;6.70;91.40;;;;;;5034403;28;20090;-66
2022/03/28 06:57:49;;;;;;;36.83;12.80;;;6.70;91.40;;;;;;5033872;28;20547;-66
2022/03/28 07:00:16;;;;;;;33.55;12.35;;;6.80;91.10;;;;;;5030319;28;20029;-66
2022/03/28 07:02:43;;;;;;;24.80;11.52;;;6.90;91.10;;;;;;5033064;28;20032;-65
2022/03/28 07:05:09;;;;;;;25.52;11.63;;;7.00;90.80;;;;;;5031922;28;20021;-67
2022/03/28 07:07:46;;;;;;;37.42;13.25;;;7.00;90.60;;;;;;5029674;28;20104;-68
2022/03/28 07:10:13;;;;;;;26.80;12.40;;;7.20;90.90;;;;;;5033004;28;20029;-68
2022/03/28 07:12:39;;;;;;;32.70;11.75;;;7.30;90.70;;;;;;5020987;28;20037;-66
2022/03/28 07:15:06;;;;;;;33.05;13.30;;;7.30;90.50;;;;;;5030881;28;20029;-68
2022/03/28 07:17:47;;;;;;;25.60;11.98;;;7.40;90.40;;;;;;5034523;28;20092;-72
2022/03/28 07:20:13;;;;;;;29.88;12.38;;;7.50;90.20;;;;;;5030769;28;20037;-69
2022/03/28 07:22:39;;;;;;;26.25;11.60;;;7.60;90.20;;;;;;5033500;28;20034;-66
2022/03/28 07:25:05;;;;;;;32.45;13.07;;;7.70;89.70;;;;;;5030721;28;20037;-67
2022/03/28 07:27:39;;;;;;;29.00;12.43;;;7.80;89.80;;;;;;5028788;28;20036;-67
2022/03/28 07:30:07;;;;;;;33.63;13.55;;;7.90;89.70;;;;;;5030059;28;20084;-65
2022/03/28 07:32:33;;;;;;;29.02;12.13;;;8.00;89.90;;;;;;5027717;28;20116;-70
2022/03/28 07:34:59;;;;;;;32.50;13.15;;;7.90;98.00;;;;;;5024351;28;20033;-71
2022/03/28 07:37:26;;;;;;;38.00;13.35;;;7.80;99.90;;;;;;5024656;28;20021;-70
2022/03/28 07:39:52;;;;;;;25.67;12.57;;;7.90;93.40;;;;;;5024672;28;20136;-71
2022/03/28 07:42:17;;;;;;;29.23;13.35;;;8.10;90.50;;;;;;5023614;28;20036;-71
2022/03/28 07:44:44;;;;;;;29.40;11.60;;;8.30;89.20;;;;;;5025195;28;20037;-71
2022/03/28 07:47:10;;;;;;;27.15;13.25;;;8.40;88.90;;;;;;5023006;28;20032;-71
2022/03/28 07:49:37;;;;;;;30.23;14.05;;;8.50;88.40;;;;;;5022571;28;20038;-70
2022/03/28 07:52:08;;;;;;;34.75;12.88;;;8.60;86.50;;;;;;5019906;28;20489;-70
2022/03/28 07:54:36;;;;;;;29.85;13.43;;;8.60;85.70;;;;;;5020082;28;20130;-70
2022/03/28 07:57:02;;;;;;;31.50;12.98;;;8.70;85.10;;;;;;5020677;28;20025;-71
2022/03/28 07:59:29;;;;;;;31.92;13.73;;;8.80;84.90;;;;;;5022698;28;20025;-70
2022/03/28 08:01:55;;;;;;;29.05;13.13;;;8.90;84.00;;;;;;5023341;28;20025;-70
2022/03/28 08:04:20;;;;;;;24.25;12.80;;;9.00;82.60;;;;;;5021340;28;20038;-70
2022/03/28 08:06:46;;;;;;;29.02;11.43;;;9.10;81.60;;;;;;5026544;28;20175;-70
2022/03/28 08:09:11;;;;;;;23.70;11.15;;;9.20;81.60;;;;;;5024264;28;20037;-70
2022/03/28 08:11:37;;;;;;;30.85;12.70;;;9.30;81.10;;;;;;5018280;28;20049;-70
2022/03/28 08:14:04;;;;;;;29.27;12.80;;;9.40;80.60;;;;;;5020193;28;20510;-69
2022/03/28 08:16:30;;;;;;;27.58;12.57;;;9.50;80.30;;;;;;5024430;28;20068;-70
2022/03/28 08:18:56;;;;;;;24.52;11.63;;;9.60;80.10;;;;;;5023592;28;20040;-69
2022/03/28 08:21:22;;;;;;;24.85;11.65;;;9.70;79.80;;;;;;5021977;28;20422;-73
2022/03/28 08:23:48;;;;;;;27.10;12.25;;;9.80;79.80;;;;;;5027619;28;20032;-71
2022/03/28 08:26:13;;;;;;;24.95;12.57;;;10.00;79.50;;;;;;5028785;28;20032;-72
2022/03/28 08:28:39;;;;;;;21.10;10.75;;;10.00;79.30;;;;;;5029246;28;20132;-72
2022/03/28 08:31:06;;;;;;;26.10;11.98;;;10.10;78.90;;;;;;5043033;28;20068;-73
2022/03/28 08:33:32;;;;;;;31.67;12.48;;;10.20;79.00;;;;;;5029371;28;20029;-69
2022/03/28 08:35:57;;;;;;;25.35;12.70;;;10.30;78.00;;;;;;5025221;28;20620;-71
2022/03/28 08:38:23;;;;;;;23.42;12.90;;;10.40;77.90;;;;;;5028319;28;20025;-71
2022/03/28 08:40:49;;;;;;;28.52;12.38;;;10.50;77.70;;;;;;5026582;28;20135;-71
2022/03/28 08:43:22;;;;;;;27.95;13.30;;;10.60;77.50;;;;;;5023624;28;20018;-72
2022/03/28 08:45:51;;;;;;;29.90;12.23;;;10.70;77.30;;;;;;5024816;28;20064;-72
2022/03/28 08:48:17;;;;;;;26.38;12.32;;;10.80;77.10;;;;;;5023365;28;20045;-73
2022/03/28 08:50:45;;;;;;;23.58;11.40;;;10.90;76.10;;;;;;5024003;28;20026;-72
2022/03/28 08:53:13;;;;;;;31.05;14.13;;;11.00;75.80;;;;;;5023606;28;20490;-73
2022/03/28 08:55:40;;;;;;;27.75;13.13;;;11.10;75.80;;;;;;5024511;28;20025;-73
2022/03/28 08:58:06;;;;;;;28.17;12.63;;;11.30;75.40;;;;;;5026594;28;20048;-72
2022/03/28 09:00:32;;;;;;;30.35;12.88;;;11.40;75.20;;;;;;5024682;28;20458;-72
2022/03/28 09:02:58;;;;;;;29.98;13.10;;;11.50;74.50;;;;;;5021537;28;20390;-72
2022/03/28 09:05:39;;;;;;;29.88;12.23;;;11.60;73.30;;;;;;5024159;28;20974;-72
2022/03/28 09:08:07;;;;;;;27.23;12.88;;;11.70;72.80;;;;;;5026613;28;20180;-72
2022/03/28 09:10:34;;;;;;;25.33;13.40;;;11.90;71.50;;;;;;5028631;28;20663;-71
2022/03/28 09:13:07;;;;;;;24.83;12.90;;;12.00;71.80;;;;;;5019977;28;20435;-72
2022/03/28 09:15:48;;;;;;;25.70;13.02;;;12.10;71.30;;;;;;5026880;28;20026;-73
2022/03/28 09:18:30;;;;;;;31.83;13.25;;;12.20;70.80;;;;;;5025075;28;20029;-72
2022/03/28 09:20:58;;;;;;;28.38;13.48;;;12.30;69.90;;;;;;5022813;28;20034;-74
2022/03/28 09:23:46;;;;;;;30.77;13.95;;;12.50;68.80;;;;;;5020180;28;20557;-73
2022/03/28 09:26:21;;;;;;;30.27;13.48;;;12.70;67.20;;;;;;5022889;28;20022;-73
2022/03/28 09:28:56;;;;;;;25.80;12.43;;;12.70;66.40;;;;;;5023167;28;20500;-74
2022/03/28 09:31:42;;;;;;;24.35;13.30;;;12.90;65.90;;;;;;5024488;28;20025;-71
2022/03/28 09:34:18;;;;;;;32.35;13.70;;;12.90;65.70;;;;;;5024134;28;20640;-71
2022/03/28 09:36:54;;;;;;;28.63;13.82;;;13.00;64.70;;;;;;5022873;28;20155;-71
2022/03/28 09:39:28;;;;;;;24.17;12.90;;;13.20;65.10;;;;;;5021418;28;20029;-71
2022/03/28 09:42:10;;;;;;;27.33;14.30;;;13.30;65.70;;;;;;5026414;28;20014;-71
2022/03/28 09:44:44;;;;;;;25.17;12.98;;;13.40;65.30;;;;;;5022005;28;20375;-71
2022/03/28 09:47:16;;;;;;;29.38;13.85;;;13.40;65.20;;;;;;5018680;28;20033;-71
2022/03/28 09:49:44;;;;;;;26.88;12.80;;;13.50;65.20;;;;;;5023581;28;20052;-71
2022/03/28 09:52:14;;;;;;;28.25;12.93;;;13.60;65.60;;;;;;5022016;28;20033;-71
2022/03/28 09:54:54;;;;;;;29.83;13.82;;;13.70;65.60;;;;;;5022050;28;20453;-71
2022/03/28 09:57:28;;;;;;;30.25;13.02;;;13.80;64.90;;;;;;5023940;28;20069;-71
2022/03/28 10:00:12;;;;;;;24.55;13.82;;;14.00;64.70;;;;;;5020887;28;20021;-71
2022/03/28 10:02:39;;;;;;;31.58;14.02;;;14.00;64.60;;;;;;5018373;28;20030;-72
2022/03/28 10:05:05;;;;;;;29.27;14.02;;;14.50;63.60;;;;;;5025094;28;20053;-72
2022/03/28 10:07:32;;;;;;;26.55;13.05;;;14.70;63.00;;;;;;5022098;28;20584;-73
2022/03/28 10:09:59;;;;;;;30.67;13.35;;;14.90;62.00;;;;;;5026646;28;20057;-73
2022/03/28 10:12:25;;;;;;;27.65;14.77;;;15.10;61.80;;;;;;5021470;28;20025;-73
2022/03/28 10:14:57;;;;;;;28.02;13.25;;;15.30;61.10;;;;;;5020914;28;20029;-73
2022/03/28 10:17:24;;;;;;;27.08;14.90;;;15.40;59.80;;;;;;5023302;28;20345;-72
2022/03/28 10:19:50;;;;;;;28.45;14.57;;;15.60;59.70;;;;;;5020506;28;20045;-72
2022/03/28 10:22:24;;;;;;;22.85;13.27;;;15.70;58.80;;;;;;5022173;28;20040;-72
2022/03/28 10:24:52;;;;;;;26.30;12.45;;;15.80;57.70;;;;;;5021790;28;20025;-72
2022/03/28 10:27:18;;;;;;;23.42;13.50;;;15.80;56.80;;;;;;5025112;28;20041;-72
2022/03/28 10:29:45;;;;;;;26.92;13.00;;;16.00;55.70;;;;;;5025645;28;20444;-72
2022/03/28 10:32:20;;;;;;;22.30;12.05;;;16.30;55.50;;;;;;5027422;28;20095;-73
2022/03/28 10:34:56;;;;;;;22.02;12.68;;;16.40;53.70;;;;;;5029941;28;20381;-73
2022/03/28 10:37:45;;;;;;;22.00;11.77;;;16.50;52.80;;;;;;5026594;28;20025;-73
2022/03/28 10:40:22;;;;;;;21.02;12.55;;;16.70;53.10;;;;;;5027317;28;20026;-73
2022/03/28 10:43:11;;;;;;;20.15;11.30;;;16.80;52.40;;;;;;5026754;28;20433;-73
2022/03/28 10:45:46;;;;;;;22.73;10.95;;;17.10;49.60;;;;;;5028124;28;20032;-73
2022/03/28 10:48:12;;;;;;;20.88;10.27;;;17.30;46.10;;;;;;5028481;28;20029;-73
2022/03/28 10:50:50;;;;;;;19.17;9.73;;;17.50;42.40;;;;;;5026267;28;20060;-71
2022/03/28 10:53:29;;;;;;;19.13;10.18;;;17.50;42.20;;;;;;5023991;28;20030;-72
2022/03/28 10:55:59;;;;;;;19.85;12.15;;;17.60;42.40;;;;;;5023801;28;20090;-72
2022/03/28 10:58:28;;;;;;;20.45;10.60;;;17.80;42.70;;;;;;5024894;28;20168;-72
2022/03/28 11:01:06;;;;;;;17.48;10.48;;;17.90;43.00;;;;;;5019298;28;20079;-72
2022/03/28 11:03:52;;;;;;;19.48;10.10;;;17.80;43.10;;;;;;5026656;28;20495;-72
2022/03/28 11:06:39;;;;;;;22.08;11.90;;;17.90;43.00;;;;;;5019945;28;20033;-71
2022/03/28 11:09:05;;;;;;;20.15;10.02;;;18.00;42.40;;;;;;5025535;28;20108;-71
2022/03/28 11:11:33;;;;;;;18.35;10.27;;;18.00;42.10;;;;;;5024213;28;20061;-72
2022/03/28 11:14:01;;;;;;;20.15;10.73;;;17.90;41.80;;;;;;5024399;28;20034;-71
2022/03/28 11:16:50;;;;;;;21.55;10.50;;;17.90;42.10;;;;;;5024187;28;20331;-70
2022/03/28 11:19:33;;;;;;;18.77;10.18;;;18.00;41.60;;;;;;5024112;28;20017;-71
2022/03/28 11:22:04;;;;;;;20.10;9.77;;;18.00;42.00;;;;;;5026947;28;20021;-72
2022/03/28 11:24:43;;;;;;;19.08;10.65;;;18.10;40.90;;;;;;5023970;28;20200;-72
2022/03/28 11:27:09;;;;;;;21.08;10.48;;;18.20;40.50;;;;;;5024945;28;20092;-73
2022/03/28 11:29:35;;;;;;;24.30;11.73;;;18.10;40.60;;;;;;5021948;28;20392;-72
2022/03/28 11:32:06;;;;;;;22.63;10.38;;;18.30;41.10;;;;;;5023150;28;20088;-72
2022/03/28 11:34:32;;;;;;;17.92;10.18;;;18.30;41.00;;;;;;5022353;28;20044;-72
2022/03/28 11:36:58;;;;;;;17.70;10.70;;;18.30;40.40;;;;;;5019395;28;20553;-72
2022/03/28 11:39:26;;;;;;;16.67;10.57;;;18.30;40.80;;;;;;5024226;28;20564;-71
2022/03/28 11:41:53;;;;;;;18.90;9.98;;;18.20;40.60;;;;;;5024084;28;20026;-71
2022/03/28 11:44:19;;;;;;;20.67;11.07;;;18.20;40.40;;;;;;5020386;28;20084;-71
2022/03/28 11:47:03;;;;;;;19.02;10.25;;;18.40;39.90;;;;;;5021823;28;20045;-71
2022/03/28 11:49:28;;;;;;;19.67;10.10;;;18.50;39.70;;;;;;5029248;28;20040;-71
2022/03/28 11:51:54;;;;;;;17.20;10.57;;;18.50;39.50;;;;;;5027721;28;20045;-71
2022/03/28 11:54:22;;;;;;;18.13;10.25;;;18.50;38.90;;;;;;5030230;28;20025;-71
2022/03/28 11:59:42;;;;;;;17.02;8.65;;;18.40;38.00;;;;;;5024916;28;20028;-73
2022/03/28 12:02:07;;;;;;;;;;;18.50;36.90;;;;;;5031632;28;20083;-71
2022/03/28 12:04:34;;;;;;;14.43;7.82;;;18.60;36.80;;;;;;5024069;28;19909;-73
2022/03/28 12:06:59;;;;;;;16.73;9.77;;;18.60;37.10;;;;;;5028673;28;20121;-74
2022/03/28 12:09:25;;;;;;;18.33;8.10;;;18.80;36.50;;;;;;5023317;28;20041;-73
2022/03/28 12:11:55;;;;;;;13.70;8.57;;;18.70;36.40;;;;;;5024556;28;20036;-72
2022/03/28 12:14:22;;;;;;;19.23;9.95;;;18.80;36.10;;;;;;5021723;28;20122;-72
2022/03/28 12:16:53;;;;;;;19.80;9.07;;;18.80;36.50;;;;;;5019610;28;20071;-71
2022/03/28 12:19:29;;;;;;;14.35;8.75;;;19.00;36.20;;;;;;5024551;28;20029;-70
2022/03/28 12:21:57;;;;;;;16.80;9.00;;;19.10;35.80;;;;;;5023373;28;20030;-71
2022/03/28 12:24:25;;;;;;;18.00;8.43;;;19.10;35.50;;;;;;5022261;28;20030;-71
2022/03/28 12:26:54;;;;;;;19.23;9.80;;;19.10;35.40;;;;;;5021800;28;20025;-70
2022/03/28 12:29:21;;;;;;;17.23;8.82;;;19.10;35.80;;;;;;5026520;28;20033;-70
2022/03/28 12:31:49;;;;;;;17.35;9.35;;;19.10;35.90;;;;;;5020566;28;20025;-73
2022/03/28 12:34:18;;;;;;;17.35;9.07;;;19.10;35.70;;;;;;5023926;28;20033;-71
2022/03/28 12:36:44;;;;;;;14.75;8.65;;;19.10;35.80;;;;;;5018488;28;20034;-72
2022/03/28 12:39:11;;;;;;;16.00;9.32;;;19.10;36.00;;;;;;5023546;28;20490;-71
2022/03/28 12:41:46;;;;;;;17.58;8.20;;;19.10;35.30;;;;;;5019256;28;20048;-71
2022/03/28 12:44:24;;;;;;;18.77;8.68;;;19.20;35.60;;;;;;5026455;28;20786;-72